createdAt,value
2023-03-06T00:00:49.999Z,9.93
2023-03-06T00:03:19.833Z,8.80
2023-03-06T00:05:47.339Z,9.80
2023-03-06T00:08:15.682Z,10.25
2023-03-06T00:10:43.045Z,9.77
2023-03-06T00:13:19.215Z,10.40
2023-03-06T00:15:47.480Z,9.00
2023-03-06T00:18:15.418Z,10.23
2023-03-06T00:20:43.938Z,9.30
2023-03-06T00:23:13.790Z,8.05
2023-03-06T00:25:45.516Z,13.38
2023-03-06T00:28:14.927Z,15.77
2023-03-06T00:30:42.878Z,22.15
2023-03-06T00:33:10.745Z,22.13
2023-03-06T00:35:41.562Z,21.27
2023-03-06T00:38:11.892Z,20.15
2023-03-06T00:40:39.210Z,16.73
2023-03-06T00:43:06.682Z,14.65
2023-03-06T00:45:34.027Z,13.57
2023-03-06T00:48:01.982Z,11.88
2023-03-06T00:50:29.175Z,9.77
2023-03-06T00:52:56.687Z,9.73
2023-03-06T00:55:25.289Z,8.43
2023-03-06T00:57:52.852Z,9.65
2023-03-06T01:00:20.538Z,10.13
2023-03-06T01:02:50.229Z,10.77
2023-03-06T01:05:17.411Z,9.60
2023-03-06T01:07:45.254Z,11.45
2023-03-06T01:10:12.599Z,9.85
2023-03-06T01:12:40.139Z,9.75
2023-03-06T01:15:07.977Z,10.25
2023-03-06T01:17:35.526Z,9.38
2023-03-06T01:20:03.713Z,10.25
2023-03-06T01:22:31.646Z,9.07
2023-03-06T01:24:59.930Z,8.70
2023-03-06T01:27:27.407Z,7.13
2023-03-06T01:29:54.550Z,8.18
2023-03-06T01:32:22.198Z,8.93
2023-03-06T01:34:50.009Z,8.75
2023-03-06T01:37:17.633Z,8.20
2023-03-06T01:39:44.860Z,9.10
2023-03-06T01:42:12.316Z,8.63
2023-03-06T01:45:06.405Z,10.07
2023-03-06T01:47:35.763Z,9.73
2023-03-06T01:50:04.607Z,8.35
2023-03-06T01:52:40.174Z,8.63
2023-03-06T01:55:12.903Z,8.82
2023-03-06T01:57:46.798Z,9.30
2023-03-06T02:00:20.973Z,10.25
2023-03-06T02:03:11.907Z,11.32
2023-03-06T02:05:41.662Z,9.48
2023-03-06T02:08:14.907Z,10.98
2023-03-06T02:11:36.456Z,10.93
2023-03-06T02:14:04.615Z,10.88
2023-03-06T02:16:33.211Z,10.30
2023-03-06T02:19:03.016Z,11.35
2023-03-06T02:21:36.269Z,11.48
2023-03-06T02:24:21.921Z,11.10
2023-03-06T02:26:51.259Z,12.00
2023-03-06T02:29:27.225Z,12.63
2023-03-06T02:31:57.169Z,12.15
2023-03-06T02:34:24.560Z,13.35
2023-03-06T02:37:11.915Z,10.40
2023-03-06T02:40:08.437Z,11.05
2023-03-06T02:42:35.958Z,11.57
2023-03-06T02:45:05.371Z,11.32
2023-03-06T02:47:32.691Z,12.15
2023-03-06T02:50:00.143Z,11.13
2023-03-06T02:52:27.399Z,12.05
2023-03-06T02:54:56.570Z,12.18
2023-03-06T02:57:24.315Z,13.15
2023-03-06T02:59:51.914Z,12.32
2023-03-06T03:02:19.133Z,12.32
2023-03-06T03:04:46.679Z,13.20
2023-03-06T03:07:14.170Z,14.13
2023-03-06T03:09:41.650Z,13.30
2023-03-06T03:12:09.247Z,12.82
2023-03-06T03:14:36.760Z,12.48
2023-03-06T03:17:03.999Z,13.95
2023-03-06T03:19:31.505Z,13.25
2023-03-06T03:21:59.210Z,15.02
2023-03-06T03:24:26.878Z,14.43
2023-03-06T03:26:55.409Z,14.27
2023-03-06T03:29:25.275Z,16.40
2023-03-06T03:31:53.633Z,14.57
2023-03-06T03:34:25.478Z,25.40
2023-03-06T03:36:53.724Z,20.38
2023-03-06T03:39:21.385Z,18.80
2023-03-06T03:41:49.009Z,19.80
2023-03-06T03:44:16.906Z,18.77
2023-03-06T03:46:44.356Z,24.98
2023-03-06T03:49:17.002Z,15.98
2023-03-06T03:51:44.869Z,16.23
2023-03-06T03:54:12.821Z,16.27
2023-03-06T03:56:44.620Z,15.73
2023-03-06T03:59:21.184Z,15.40
2023-03-06T04:02:17.845Z,15.05
2023-03-06T04:04:59.401Z,12.93
2023-03-06T04:07:27.371Z,15.00
2023-03-06T04:09:54.879Z,13.82
2023-03-06T04:12:22.547Z,19.85
2023-03-06T04:14:50.315Z,12.95
2023-03-06T04:17:18.022Z,14.43
2023-03-06T04:19:45.523Z,13.15
2023-03-06T04:22:12.821Z,15.07
2023-03-06T04:24:40.866Z,12.95
2023-03-06T04:27:09.295Z,13.25
2023-03-06T04:29:36.824Z,13.48
2023-03-06T04:32:04.240Z,13.48
2023-03-06T04:34:32.431Z,12.15
2023-03-06T04:36:59.660Z,13.18
2023-03-06T04:39:27.205Z,13.05
2023-03-06T04:41:54.996Z,12.07
2023-03-06T04:44:22.502Z,11.68
2023-03-06T04:46:49.701Z,12.07
2023-03-06T04:49:17.276Z,12.85
2023-03-06T04:51:44.429Z,21.42
2023-03-06T04:54:12.086Z,27.27
2023-03-06T04:56:39.247Z,13.13
2023-03-06T04:59:06.794Z,17.25
2023-03-06T05:01:33.959Z,14.45
2023-03-06T05:04:01.448Z,22.52
2023-03-06T05:06:28.616Z,13.63
2023-03-06T05:08:56.081Z,17.98
2023-03-06T05:11:23.272Z,19.55
2023-03-06T05:13:50.771Z,11.88
2023-03-06T05:16:18.049Z,15.32
2023-03-06T05:18:45.495Z,13.98
2023-03-06T05:21:12.721Z,22.08
2023-03-06T05:23:41.098Z,21.08
2023-03-06T05:26:10.311Z,21.05
2023-03-06T05:28:38.460Z,17.25
2023-03-06T05:31:06.518Z,16.45
2023-03-06T05:33:35.866Z,85.10
2023-03-06T05:36:03.669Z,18.92
2023-03-06T05:38:32.179Z,14.88
2023-03-06T05:40:59.359Z,26.65
2023-03-06T05:43:26.873Z,24.63
2023-03-06T05:46:04.832Z,16.95
2023-03-06T05:48:33.120Z,17.02
2023-03-06T05:51:01.212Z,15.35
2023-03-06T05:53:29.427Z,19.15
2023-03-06T05:55:58.813Z,16.00
2023-03-06T05:58:27.325Z,17.15
2023-03-06T06:00:54.528Z,16.98
2023-03-06T06:03:23.196Z,17.60
2023-03-06T06:05:50.978Z,15.23
2023-03-06T06:08:18.770Z,13.90
2023-03-06T06:10:46.003Z,18.70
2023-03-06T06:13:13.518Z,15.10
2023-03-06T06:15:40.616Z,15.20
2023-03-06T06:18:08.344Z,17.92
2023-03-06T06:20:37.546Z,18.80
2023-03-06T06:23:05.724Z,17.15
2023-03-06T06:25:32.968Z,14.38
2023-03-06T06:28:00.472Z,26.23
2023-03-06T06:30:27.642Z,38.25
2023-03-06T06:32:55.194Z,17.60
2023-03-06T06:35:22.576Z,23.67
2023-03-06T06:37:50.365Z,20.20
2023-03-06T06:40:18.079Z,28.55
2023-03-06T06:42:46.672Z,23.63
2023-03-06T06:45:14.890Z,22.10
2023-03-06T06:47:43.556Z,20.75
2023-03-06T06:50:13.187Z,23.00
2023-03-06T06:52:40.841Z,23.33
2023-03-06T06:55:08.614Z,16.73
2023-03-06T06:57:36.120Z,16.25
2023-03-06T07:00:05.111Z,14.25
2023-03-06T07:02:32.716Z,15.10
2023-03-06T07:05:04.646Z,29.13
2023-03-06T07:07:37.295Z,15.02
2023-03-06T07:10:08.089Z,14.68
2023-03-06T07:12:36.710Z,12.60
2023-03-06T07:15:05.357Z,18.77
2023-03-06T07:17:32.901Z,17.83
2023-03-06T07:20:00.126Z,14.40
2023-03-06T07:22:30.317Z,17.60
2023-03-06T07:24:59.336Z,13.00
2023-03-06T07:27:26.955Z,13.05
2023-03-06T07:29:54.126Z,10.20
2023-03-06T07:32:21.678Z,10.43
2023-03-06T07:34:48.932Z,10.15
2023-03-06T07:37:16.489Z,12.88
2023-03-06T07:39:43.731Z,10.98
2023-03-06T07:42:13.866Z,11.35
2023-03-06T07:44:48.346Z,12.32
2023-03-06T07:47:15.789Z,9.48
2023-03-06T07:49:42.950Z,9.73
2023-03-06T07:52:10.329Z,8.52
2023-03-06T07:54:37.515Z,8.50
2023-03-06T07:57:04.965Z,9.57
2023-03-06T07:59:32.691Z,8.18
2023-03-06T08:02:00.338Z,7.72
2023-03-06T08:04:29.082Z,7.07
2023-03-06T08:06:59.759Z,8.20
2023-03-06T08:09:27.066Z,9.95
2023-03-06T08:11:54.549Z,8.68
2023-03-06T08:14:21.745Z,7.00
2023-03-06T08:16:51.226Z,7.22
2023-03-06T08:19:18.352Z,7.85
2023-03-06T08:21:46.035Z,6.57
2023-03-06T08:24:16.611Z,7.32
2023-03-06T08:26:44.573Z,5.78
2023-03-06T08:29:11.998Z,5.57
2023-03-06T08:31:42.054Z,5.28
2023-03-06T08:34:13.283Z,6.80
2023-03-06T08:36:41.203Z,5.10
2023-03-06T08:39:08.983Z,4.65
2023-03-06T08:41:37.464Z,4.55
2023-03-06T08:44:05.514Z,6.78
2023-03-06T08:46:33.977Z,5.03
2023-03-06T08:49:01.823Z,6.00
2023-03-06T08:51:29.483Z,4.80
2023-03-06T08:53:57.665Z,4.68
2023-03-06T08:56:28.610Z,4.35
2023-03-06T08:58:57.903Z,4.82
2023-03-06T09:01:33.928Z,4.93
2023-03-06T09:04:04.454Z,3.80
2023-03-06T09:06:34.742Z,3.92
2023-03-06T09:09:02.340Z,3.92
2023-03-06T09:11:30.558Z,4.38
2023-03-06T09:13:57.915Z,3.30
2023-03-06T09:16:25.763Z,3.10
2023-03-06T09:18:54.127Z,3.70
2023-03-06T09:21:22.703Z,3.13
2023-03-06T09:23:49.982Z,4.07
2023-03-06T09:26:17.604Z,3.70
2023-03-06T09:28:44.911Z,3.72
2023-03-06T09:31:17.688Z,3.40
2023-03-06T09:33:45.360Z,3.72
2023-03-06T09:36:22.557Z,3.00
2023-03-06T09:41:26.445Z,75.57
2023-03-06T09:44:12.165Z,34.55
2023-03-06T09:47:07.979Z,11.38
2023-03-06T09:49:53.941Z,13.13
2023-03-06T09:52:44.240Z,2.80
2023-03-06T09:55:20.394Z,3.20
2023-03-06T09:58:20.578Z,4.75
2023-03-06T10:01:16.393Z,8.27
2023-03-06T10:04:22.732Z,4.60
2023-03-06T10:06:53.351Z,11.05
2023-03-06T10:09:29.621Z,15.43
2023-03-06T10:12:12.917Z,4.60
2023-03-06T10:14:43.959Z,11.23
2023-03-06T10:17:36.087Z,7.00
2023-03-06T10:20:16.251Z,18.77
2023-03-06T10:23:20.851Z,5.03
2023-03-06T10:25:54.159Z,3.47
2023-03-06T10:28:38.772Z,4.07
2023-03-06T10:31:22.717Z,26.08
2023-03-06T10:34:12.882Z,47.65
2023-03-06T10:36:40.394Z,19.70
2023-03-06T10:39:15.762Z,5.63
2023-03-06T10:41:45.355Z,4.80
2023-03-06T10:44:12.551Z,6.82
2023-03-06T10:46:43.637Z,6.68
2023-03-06T10:50:00.133Z,9.52
2023-03-06T10:52:35.218Z,16.08
2023-03-06T10:55:25.805Z,5.53
2023-03-06T10:57:53.652Z,4.38
2023-03-06T11:00:32.925Z,17.52
2023-03-06T11:03:19.079Z,9.65
2023-03-06T11:05:58.257Z,11.60
2023-03-06T11:08:25.852Z,8.80
2023-03-06T11:10:58.566Z,10.82
2023-03-06T11:13:28.489Z,5.95
2023-03-06T11:16:01.284Z,3.50
2023-03-06T11:18:37.107Z,11.35
2023-03-06T11:21:23.197Z,6.15
2023-03-06T11:23:52.134Z,9.68
2023-03-06T11:26:30.626Z,11.95
2023-03-06T11:29:26.400Z,3.72
2023-03-06T11:32:17.282Z,12.88
2023-03-06T11:34:54.680Z,2.85
2023-03-06T11:40:16.285Z,7.05
2023-03-06T11:43:06.093Z,3.60
2023-03-06T11:45:45.088Z,4.22
2023-03-06T11:48:14.990Z,4.22
2023-03-06T11:50:48.356Z,4.00
2023-03-06T11:53:17.971Z,3.72
2023-03-06T11:55:57.612Z,3.50
2023-03-06T11:58:39.610Z,4.03
2023-03-06T12:01:22.641Z,5.93
2023-03-06T12:04:17.180Z,4.75
2023-03-06T12:07:27.071Z,4.35
2023-03-06T12:10:26.260Z,3.80
2023-03-06T12:13:11.881Z,5.05
2023-03-06T12:15:57.958Z,4.13
2023-03-06T12:18:45.620Z,6.30
2023-03-06T12:26:57.629Z,6.77
2023-03-06T12:29:49.025Z,4.47
2023-03-06T12:32:54.432Z,6.38
2023-03-06T12:35:22.339Z,5.43
2023-03-06T12:38:16.586Z,4.82
2023-03-06T12:41:08.154Z,6.05
2023-03-06T12:43:35.245Z,4.88
2023-03-06T12:46:16.612Z,6.78
2023-03-06T12:48:48.951Z,5.55
2023-03-06T12:51:20.507Z,6.10
2023-03-06T12:53:49.054Z,5.40
2023-03-06T12:56:18.263Z,4.93
2023-03-06T12:58:50.266Z,4.68
2023-03-06T13:01:38.036Z,4.53
2023-03-06T13:07:12.478Z,4.90
2023-03-06T13:09:42.408Z,5.18
2023-03-06T13:12:16.735Z,4.20
2023-03-06T13:14:53.810Z,4.13
2023-03-06T13:17:37.873Z,4.45
2023-03-06T13:20:14.321Z,6.15
2023-03-06T13:22:43.541Z,5.30
2023-03-06T13:25:19.813Z,4.88
2023-03-06T13:27:53.245Z,5.25
2023-03-06T13:30:45.324Z,4.88
2023-03-06T13:33:30.036Z,5.22
2023-03-06T13:35:59.392Z,4.80
2023-03-06T13:38:40.699Z,4.75
2023-03-06T13:41:23.232Z,4.82
2023-03-06T13:44:02.469Z,6.80
2023-03-06T13:46:35.616Z,7.32
2023-03-06T13:49:21.771Z,6.57
2023-03-06T13:51:51.901Z,5.68
2023-03-06T13:54:37.879Z,5.32
2023-03-06T13:57:19.628Z,5.97
2023-03-06T14:00:15.006Z,6.13
2023-03-06T14:03:15.698Z,5.43
2023-03-06T14:05:49.734Z,6.32
2023-03-06T14:08:24.132Z,8.27
2023-03-06T14:11:27.359Z,8.05
2023-03-06T14:13:56.912Z,7.63
2023-03-06T14:16:29.165Z,7.85
2023-03-06T14:19:00.715Z,7.07
2023-03-06T14:21:45.455Z,6.57
2023-03-06T14:24:31.731Z,5.50
2023-03-06T14:26:59.224Z,5.93
2023-03-06T14:29:28.559Z,6.50
2023-03-06T14:31:58.873Z,5.75
2023-03-06T14:34:33.086Z,6.50
2023-03-06T14:37:03.512Z,7.97
2023-03-06T14:39:36.598Z,7.50
2023-03-06T14:42:26.607Z,5.93
2023-03-06T14:45:05.701Z,7.70
2023-03-06T14:47:36.287Z,9.27
2023-03-06T14:50:27.604Z,7.80
2023-03-06T14:52:58.124Z,6.78
2023-03-06T14:55:28.369Z,8.10
2023-03-06T14:58:36.422Z,8.38
2023-03-06T15:01:08.150Z,9.07
2023-03-06T15:03:46.365Z,35.20
2023-03-06T15:06:34.833Z,8.48
2023-03-06T15:09:13.844Z,21.33
2023-03-06T15:11:54.382Z,8.80
2023-03-06T15:14:47.785Z,8.95
2023-03-06T15:17:17.722Z,50.15
2023-03-06T15:19:47.646Z,7.65
2023-03-06T15:22:27.630Z,8.38
2023-03-06T15:25:06.808Z,9.27
2023-03-06T15:27:34.020Z,8.63
2023-03-06T15:30:25.166Z,8.02
2023-03-06T15:32:52.839Z,7.38
2023-03-06T15:35:36.611Z,8.82
2023-03-06T15:38:24.749Z,8.35
2023-03-06T15:41:00.607Z,9.18
2023-03-06T15:43:40.260Z,7.93
2023-03-06T15:46:08.254Z,7.78
2023-03-06T15:48:35.602Z,9.45
2023-03-06T15:51:04.832Z,12.25
2023-03-06T15:53:32.173Z,12.25
2023-03-06T15:55:59.810Z,11.20
2023-03-06T15:58:29.486Z,12.38
2023-03-06T16:00:57.173Z,30.10
2023-03-06T16:03:24.382Z,29.25
2023-03-06T16:05:51.826Z,28.02
2023-03-06T16:08:19.154Z,31.05
2023-03-06T16:10:47.116Z,24.27
2023-03-06T16:13:22.043Z,16.40
2023-03-06T16:15:50.893Z,13.38
2023-03-06T16:18:18.232Z,12.88
2023-03-06T16:20:45.915Z,15.48
2023-03-06T16:23:13.193Z,14.00
2023-03-06T16:25:43.548Z,14.10
2023-03-06T16:28:14.246Z,13.65
2023-03-06T16:30:43.585Z,13.98
2023-03-06T16:33:12.157Z,14.10
2023-03-06T16:35:41.237Z,13.38
2023-03-06T16:38:10.462Z,15.32
2023-03-06T16:40:41.358Z,17.55
2023-03-06T16:43:10.612Z,15.00
2023-03-06T16:45:40.588Z,15.82
2023-03-06T16:48:10.801Z,17.45
2023-03-06T16:50:39.983Z,16.85
2023-03-06T16:53:08.117Z,14.85
2023-03-06T16:55:35.965Z,17.48
2023-03-06T16:58:03.207Z,18.02
2023-03-06T17:00:33.141Z,15.68
2023-03-06T17:03:01.685Z,15.77
2023-03-06T17:05:29.551Z,21.98
2023-03-06T17:07:56.920Z,23.33
2023-03-06T17:10:26.464Z,22.95
2023-03-06T17:12:55.306Z,25.48
2023-03-06T17:15:22.925Z,23.65
2023-03-06T17:17:51.737Z,25.88
2023-03-06T17:20:19.945Z,25.27
2023-03-06T17:22:47.183Z,25.83
2023-03-06T17:25:14.970Z,24.20
2023-03-06T17:27:42.237Z,22.92
2023-03-06T17:30:10.702Z,18.67
2023-03-06T17:32:40.025Z,18.88
2023-03-06T17:35:10.261Z,17.58
2023-03-06T17:37:37.798Z,16.50
2023-03-06T17:40:08.274Z,16.33
2023-03-06T17:42:35.964Z,16.50
2023-03-06T17:45:04.448Z,16.48
2023-03-06T17:47:31.553Z,14.85
2023-03-06T17:50:00.084Z,15.35
2023-03-06T17:52:27.445Z,16.10
2023-03-06T17:54:54.897Z,18.88
2023-03-06T17:57:22.069Z,21.70
2023-03-06T17:59:49.558Z,19.33
2023-03-06T18:02:16.713Z,21.00
2023-03-06T18:04:44.241Z,20.52
2023-03-06T18:07:11.510Z,21.92
2023-03-06T18:09:42.344Z,21.40
2023-03-06T18:12:09.975Z,23.67
2023-03-06T18:14:37.691Z,23.58
2023-03-06T18:17:04.927Z,24.30
2023-03-06T18:19:32.741Z,24.50
2023-03-06T18:22:00.580Z,23.73
2023-03-06T18:24:28.030Z,26.83
2023-03-06T18:26:55.155Z,26.27
2023-03-06T18:29:22.685Z,26.02
2023-03-06T18:31:50.498Z,27.08
2023-03-06T18:34:18.409Z,28.20
2023-03-06T18:36:47.356Z,30.95
2023-03-06T18:39:15.871Z,27.80
2023-03-06T18:41:43.121Z,27.42
2023-03-06T18:44:19.441Z,29.52
2023-03-06T18:46:46.792Z,24.17
2023-03-06T18:49:15.808Z,30.63
2023-03-06T18:51:43.246Z,30.60
2023-03-06T18:54:11.474Z,32.42
2023-03-06T18:56:40.416Z,32.40
2023-03-06T18:59:08.036Z,33.00
2023-03-06T19:01:35.577Z,30.98
2023-03-06T19:04:04.267Z,27.50
2023-03-06T19:06:31.761Z,29.05
2023-03-06T19:08:59.525Z,26.10
2023-03-06T19:11:27.183Z,26.50
2023-03-06T19:13:54.960Z,26.98
2023-03-06T19:16:25.235Z,25.55
2023-03-06T19:18:55.241Z,24.58
2023-03-06T19:21:24.089Z,27.60
2023-03-06T19:23:51.598Z,27.13
2023-03-06T19:26:19.237Z,27.63
2023-03-06T19:28:47.970Z,28.80
2023-03-06T19:31:26.747Z,29.60
2023-03-06T19:33:56.757Z,30.15
2023-03-06T19:36:27.819Z,31.20
2023-03-06T19:38:56.498Z,31.65
2023-03-06T19:41:24.162Z,31.55
2023-03-06T19:43:59.398Z,30.98
2023-03-06T19:46:27.415Z,31.95
2023-03-06T19:48:59.874Z,31.77
2023-03-06T19:51:28.169Z,31.98
2023-03-06T19:53:57.068Z,30.20
2023-03-06T19:56:27.383Z,33.50
2023-03-06T19:58:55.305Z,34.60
2023-03-06T20:01:25.560Z,35.13
2023-03-06T20:03:59.424Z,34.72
2023-03-06T20:06:29.208Z,34.53
2023-03-06T20:08:56.755Z,39.25
2023-03-06T20:11:31.267Z,37.70
2023-03-06T20:14:00.666Z,34.42
2023-03-06T20:16:29.326Z,37.65
2023-03-06T20:18:59.057Z,36.47
2023-03-06T20:21:28.116Z,31.27
2023-03-06T20:23:58.058Z,32.90
2023-03-06T20:26:26.947Z,32.58
2023-03-06T20:28:54.888Z,31.98
2023-03-06T20:31:25.141Z,32.25
2023-03-06T20:33:54.004Z,30.45
2023-03-06T20:36:23.863Z,31.52
2023-03-06T20:38:51.582Z,30.23
2023-03-06T20:41:22.190Z,32.05
2023-03-06T20:43:50.759Z,32.10
2023-03-06T20:46:19.446Z,29.38
2023-03-06T20:48:52.639Z,31.05
2023-03-06T20:51:25.550Z,32.55
2023-03-06T20:53:53.382Z,33.65
2023-03-06T20:56:24.800Z,32.88
2023-03-06T20:58:52.867Z,32.45
2023-03-06T21:01:29.227Z,36.75
2023-03-06T21:03:58.247Z,36.25
2023-03-06T21:06:26.652Z,41.17
2023-03-06T21:08:55.027Z,35.17
2023-03-06T21:11:22.256Z,40.05
2023-03-06T21:13:49.770Z,44.50
2023-03-06T21:16:19.540Z,45.03
2023-03-06T21:18:47.680Z,35.63
2023-03-06T21:21:20.248Z,37.65
2023-03-06T21:23:48.696Z,41.00
2023-03-06T21:26:19.551Z,39.10
2023-03-06T21:28:47.506Z,39.90
2023-03-06T21:31:16.321Z,46.08
2023-03-06T21:33:44.771Z,55.67
2023-03-06T21:36:11.962Z,53.28
2023-03-06T21:38:39.427Z,54.10
2023-03-06T21:41:18.700Z,60.00
2023-03-06T21:43:46.408Z,51.92
2023-03-06T21:46:13.872Z,56.35
2023-03-06T21:48:41.542Z,56.67
2023-03-06T21:51:13.266Z,58.53
2023-03-06T21:53:44.792Z,54.10
2023-03-06T21:56:13.770Z,56.13
2023-03-06T21:58:41.838Z,51.80
2023-03-06T22:01:13.806Z,52.78
2023-03-06T22:03:41.380Z,58.22
2023-03-06T22:06:13.938Z,58.03
2023-03-06T22:08:42.143Z,45.03
2023-03-06T22:11:12.252Z,57.97
2023-03-06T22:13:40.361Z,59.42
2023-03-06T22:16:08.121Z,57.08
2023-03-06T22:18:36.047Z,45.42
2023-03-06T22:21:12.241Z,43.40
2023-03-06T22:23:40.582Z,45.30
2023-03-06T22:26:17.105Z,58.92
2023-03-06T22:28:45.010Z,64.78
2023-03-06T22:31:17.161Z,55.28
2023-03-06T22:33:45.000Z,56.30
2023-03-06T22:36:14.771Z,54.55
2023-03-06T22:38:44.012Z,57.70
2023-03-06T22:41:13.266Z,56.92
2023-03-06T22:43:40.972Z,58.60
2023-03-06T22:46:14.096Z,68.80
2023-03-06T22:48:42.231Z,75.03
2023-03-06T22:51:15.121Z,80.80
2023-03-06T22:53:43.113Z,75.13
2023-03-06T22:56:12.735Z,70.63
2023-03-06T22:58:40.514Z,67.68
2023-03-06T23:01:27.679Z,68.50
2023-03-06T23:03:58.014Z,57.08
2023-03-06T23:06:36.896Z,54.95
2023-03-06T23:09:12.177Z,64.60
2023-03-06T23:11:58.137Z,65.70
2023-03-06T23:14:44.918Z,64.10
2023-03-06T23:17:30.695Z,55.50
2023-03-06T23:20:16.644Z,61.05
2023-03-06T23:23:02.107Z,62.20
2023-03-06T23:25:41.614Z,58.13
2023-03-06T23:28:08.789Z,53.33
2023-03-06T23:30:39.095Z,53.20
2023-03-06T23:33:06.397Z,50.65
2023-03-06T23:35:35.301Z,50.25
2023-03-06T23:38:02.631Z,51.22
2023-03-06T23:40:33.213Z,41.90
2023-03-06T23:43:00.549Z,46.70
2023-03-06T23:45:28.357Z,46.40
2023-03-06T23:47:56.149Z,48.50
2023-03-06T23:50:24.518Z,47.42
2023-03-06T23:52:53.086Z,44.30
2023-03-06T23:55:20.884Z,44.42
2023-03-06T23:57:48.036Z,37.83
